createdAt,value
2022-12-19T00:00:38.774Z,13.43
2022-12-19T00:03:28.612Z,13.70
2022-12-19T00:06:18.715Z,14.07
2022-12-19T00:09:07.400Z,13.83
2022-12-19T00:11:55.654Z,13.90
2022-12-19T00:14:43.890Z,13.70
2022-12-19T00:17:33.002Z,13.73
2022-12-19T00:20:24.438Z,13.50
2022-12-19T00:23:12.629Z,14.27
2022-12-19T00:26:09.551Z,13.53
2022-12-19T00:28:59.371Z,13.30
2022-12-19T00:31:47.898Z,13.53
2022-12-19T00:34:36.211Z,13.80
2022-12-19T00:37:25.812Z,13.37
2022-12-19T00:40:14.427Z,12.93
2022-12-19T00:43:02.694Z,12.47
2022-12-19T00:45:51.017Z,12.20
2022-12-19T00:48:39.659Z,13.57
2022-12-19T00:51:29.828Z,12.37
2022-12-19T00:54:19.441Z,13.40
2022-12-19T00:57:07.915Z,12.90
2022-12-19T00:59:56.182Z,13.63
2022-12-19T01:02:45.196Z,12.30
2022-12-19T01:05:33.567Z,12.70
2022-12-19T01:08:22.541Z,12.83
2022-12-19T01:11:13.024Z,12.70
2022-12-19T01:14:00.289Z,12.10
2022-12-19T01:16:48.589Z,14.07
2022-12-19T01:19:43.363Z,14.33
2022-12-19T01:22:32.442Z,11.73
2022-12-19T01:25:20.698Z,12.23
2022-12-19T01:28:15.362Z,11.83
2022-12-19T01:31:07.771Z,11.37
2022-12-19T01:33:59.867Z,12.33
2022-12-19T01:36:49.439Z,12.13
2022-12-19T01:39:37.781Z,12.57
2022-12-19T01:42:27.821Z,12.70
2022-12-19T01:45:33.943Z,12.77
2022-12-19T01:48:30.483Z,12.83
2022-12-19T01:51:22.134Z,11.43
2022-12-19T01:54:14.859Z,12.40
2022-12-19T01:57:05.199Z,11.50
2022-12-19T01:59:58.621Z,11.82
2022-12-19T02:02:55.077Z,12.37
2022-12-19T02:05:44.654Z,11.75
2022-12-19T02:08:35.492Z,11.20
2022-12-19T02:11:23.764Z,11.43
2022-12-19T02:14:12.003Z,11.70
2022-12-19T02:17:11.750Z,11.53
2022-12-19T02:20:24.707Z,12.10
2022-12-19T02:23:41.578Z,12.45
2022-12-19T02:26:53.413Z,11.10
2022-12-19T02:30:14.035Z,10.63
2022-12-19T02:33:10.326Z,8.60
2022-12-19T02:36:05.006Z,11.30
2022-12-19T02:38:59.663Z,11.05
2022-12-19T02:41:54.278Z,11.07
2022-12-19T02:44:46.635Z,9.18
2022-12-19T02:47:36.294Z,10.18
2022-12-19T02:50:25.899Z,10.50
2022-12-19T02:53:16.391Z,10.30
2022-12-19T02:56:23.018Z,7.90
2022-12-19T02:59:28.977Z,9.73
2022-12-19T03:02:30.327Z,9.98
2022-12-19T03:08:25.471Z,10.02
2022-12-19T03:11:15.424Z,10.55
2022-12-19T03:14:08.355Z,10.60
2022-12-19T03:16:56.959Z,9.80
2022-12-19T03:19:45.943Z,10.70
2022-12-19T03:22:34.255Z,9.07
2022-12-19T03:25:25.156Z,9.73
2022-12-19T03:28:17.235Z,9.98
2022-12-19T03:31:07.841Z,10.00
2022-12-19T03:33:58.196Z,7.15
2022-12-19T03:36:50.277Z,10.70
2022-12-19T03:39:40.052Z,10.15
2022-12-19T03:42:50.356Z,9.40
2022-12-19T03:45:46.787Z,11.13
2022-12-19T03:48:42.020Z,9.52
2022-12-19T03:51:36.960Z,10.25
2022-12-19T03:54:28.032Z,8.80
2022-12-19T03:57:20.301Z,9.65
2022-12-19T04:00:14.241Z,9.15
2022-12-19T04:03:03.504Z,8.70
2022-12-19T04:05:53.759Z,9.27
2022-12-19T04:08:43.143Z,10.00
2022-12-19T04:11:35.832Z,10.23
2022-12-19T04:14:29.206Z,9.23
2022-12-19T04:17:26.358Z,10.55
2022-12-19T04:20:16.824Z,9.55
2022-12-19T04:23:11.855Z,9.82
2022-12-19T04:26:04.137Z,10.50
2022-12-19T04:28:56.394Z,9.07
2022-12-19T04:31:45.462Z,9.70
2022-12-19T04:34:37.855Z,8.65
2022-12-19T04:37:30.051Z,10.13
2022-12-19T04:40:18.530Z,9.30
2022-12-19T04:43:07.630Z,9.52
2022-12-19T04:45:57.735Z,9.75
2022-12-19T04:48:46.180Z,8.63
2022-12-19T04:51:36.060Z,9.77
2022-12-19T04:54:24.286Z,10.25
2022-12-19T04:57:12.535Z,9.38
2022-12-19T05:00:00.804Z,10.20
2022-12-19T05:02:49.393Z,9.02
2022-12-19T05:05:37.781Z,9.75
2022-12-19T05:08:27.439Z,8.68
2022-12-19T05:11:19.713Z,9.15
2022-12-19T05:14:08.503Z,9.82
2022-12-19T05:17:01.361Z,9.60
2022-12-19T05:19:50.059Z,9.18
2022-12-19T05:22:38.351Z,10.00
2022-12-19T05:25:27.903Z,9.70
2022-12-19T05:28:16.844Z,9.02
2022-12-19T05:31:07.974Z,9.57
2022-12-19T05:33:56.199Z,10.10
2022-12-19T05:36:44.474Z,9.02
2022-12-19T05:39:32.732Z,8.57
2022-12-19T05:42:22.326Z,10.25
2022-12-19T05:45:10.818Z,8.75
2022-12-19T05:48:01.429Z,8.60
2022-12-19T05:50:50.593Z,9.02
2022-12-19T05:53:40.411Z,9.75
2022-12-19T05:56:28.683Z,9.23
2022-12-19T05:59:18.251Z,9.88
2022-12-19T06:02:06.627Z,10.38
2022-12-19T06:04:54.866Z,10.30
2022-12-19T06:07:43.100Z,9.00
2022-12-19T06:10:31.376Z,9.60
2022-12-19T06:13:24.834Z,9.60
2022-12-19T06:16:16.560Z,9.68
2022-12-19T06:19:05.003Z,8.43
2022-12-19T06:21:53.264Z,9.32
2022-12-19T06:24:41.657Z,9.35
2022-12-19T06:27:30.061Z,10.20
2022-12-19T06:30:18.412Z,9.07
2022-12-19T06:33:10.243Z,9.65
2022-12-19T06:35:59.989Z,9.30
2022-12-19T06:38:48.405Z,9.52
2022-12-19T06:42:04.292Z,9.63
2022-12-19T06:44:55.577Z,10.07
2022-12-19T06:47:44.298Z,10.35
2022-12-19T06:50:35.819Z,10.95
2022-12-19T06:53:24.555Z,10.95
2022-12-19T06:56:15.735Z,10.27
2022-12-19T06:59:04.064Z,9.70
2022-12-19T07:01:58.027Z,10.40
2022-12-19T07:04:50.673Z,11.73
2022-12-19T07:07:41.276Z,10.80
2022-12-19T07:10:30.570Z,11.52
2022-12-19T07:13:18.831Z,10.43
2022-12-19T07:16:08.569Z,11.00
2022-12-19T07:18:56.928Z,11.65
2022-12-19T07:21:45.697Z,11.43
2022-12-19T07:24:36.588Z,11.70
2022-12-19T07:27:28.500Z,11.48
2022-12-19T07:30:20.126Z,11.52
2022-12-19T07:33:11.110Z,12.10
2022-12-19T07:36:00.123Z,12.82
2022-12-19T07:38:48.359Z,11.05
2022-12-19T07:41:39.413Z,11.30
2022-12-19T07:44:27.661Z,12.07
2022-12-19T07:47:15.885Z,11.70
2022-12-19T07:50:04.370Z,13.55
2022-12-19T07:52:52.594Z,11.85
2022-12-19T07:55:40.858Z,11.20
2022-12-19T07:58:31.323Z,12.82
2022-12-19T08:01:20.298Z,12.05
2022-12-19T08:04:08.582Z,11.77
2022-12-19T08:06:57.175Z,12.38
2022-12-19T08:09:45.577Z,11.13
2022-12-19T08:12:34.572Z,12.57
2022-12-19T08:15:24.773Z,11.07
2022-12-19T08:18:13.121Z,11.23
2022-12-19T08:21:01.379Z,12.60
2022-12-19T08:23:49.641Z,11.40
2022-12-19T08:26:41.900Z,12.07
2022-12-19T08:29:32.147Z,12.65
2022-12-19T08:32:22.055Z,12.63
2022-12-19T08:35:10.680Z,11.38
2022-12-19T08:38:00.121Z,12.63
2022-12-19T08:40:53.618Z,12.55
2022-12-19T08:43:42.023Z,11.80
2022-12-19T08:46:30.282Z,12.52
2022-12-19T08:49:20.840Z,12.77
2022-12-19T08:52:09.600Z,12.20
2022-12-19T08:54:57.943Z,12.68
2022-12-19T08:57:46.192Z,12.15
2022-12-19T09:00:34.457Z,13.00
2022-12-19T09:03:24.026Z,12.73
2022-12-19T09:06:19.153Z,13.57
2022-12-19T09:09:08.709Z,11.70
2022-12-19T09:11:59.885Z,13.10
2022-12-19T09:14:48.137Z,12.70
2022-12-19T09:17:36.337Z,13.60
2022-12-19T09:20:24.821Z,14.18
2022-12-19T09:23:14.392Z,12.63
2022-12-19T09:26:04.860Z,12.73
2022-12-19T09:28:53.728Z,9.40
2022-12-19T09:31:41.967Z,13.88
2022-12-19T09:34:37.607Z,14.10
2022-12-19T09:37:27.264Z,13.43
2022-12-19T09:40:18.733Z,14.73
2022-12-19T09:43:15.959Z,15.20
2022-12-19T09:46:12.828Z,13.55
2022-12-19T09:49:03.229Z,15.45
2022-12-19T09:51:58.596Z,14.98
2022-12-19T09:54:52.455Z,14.63
2022-12-19T09:57:50.626Z,14.65
2022-12-19T10:00:43.182Z,14.18
2022-12-19T10:03:39.648Z,13.95
2022-12-19T10:07:07.940Z,14.13
2022-12-19T10:11:44.309Z,15.30
2022-12-19T10:13:12.988Z,15.40
2022-12-19T10:16:08.694Z,15.30
2022-12-19T10:18:59.105Z,13.43
2022-12-19T10:25:20.366Z,17.13
2022-12-19T10:28:23.691Z,15.43
2022-12-19T10:31:22.023Z,15.80
2022-12-19T10:34:19.907Z,15.45
2022-12-19T10:37:24.329Z,13.95
2022-12-19T10:40:28.489Z,14.90
2022-12-19T10:43:33.633Z,15.73
2022-12-19T10:46:36.854Z,13.65
2022-12-19T10:49:27.642Z,14.15
2022-12-19T10:52:16.123Z,14.60
2022-12-19T10:55:20.760Z,14.75
2022-12-19T10:58:20.315Z,14.88
2022-12-19T11:01:14.682Z,15.60
2022-12-19T11:04:19.789Z,14.68
2022-12-19T11:07:23.204Z,15.00
2022-12-19T11:12:12.949Z,14.43
2022-12-19T11:19:17.968Z,14.90
2022-12-19T11:24:22.386Z,14.57
2022-12-19T11:29:40.134Z,15.68
2022-12-19T11:30:09.730Z,15.68
2022-12-19T11:30:36.479Z,15.85
2022-12-19T11:33:13.093Z,14.48
2022-12-19T11:36:03.653Z,13.82
2022-12-19T11:38:54.457Z,14.88
2022-12-19T11:41:47.443Z,14.70
2022-12-19T11:44:40.205Z,15.10
2022-12-19T11:47:38.022Z,16.33
2022-12-19T11:50:29.293Z,15.90
2022-12-19T11:56:15.972Z,14.68
2022-12-19T11:59:23.031Z,14.82
2022-12-19T12:02:38.642Z,16.38
2022-12-19T12:05:45.418Z,14.73
2022-12-19T12:10:43.569Z,15.57
2022-12-19T12:18:38.400Z,15.98
2022-12-19T12:25:12.112Z,14.75
2022-12-19T12:30:59.799Z,15.95
2022-12-19T12:31:42.403Z,16.58
2022-12-19T12:31:44.725Z,16.80
2022-12-19T12:31:56.855Z,16.88
2022-12-19T12:35:40.932Z,15.95
2022-12-19T12:39:04.629Z,16.85
2022-12-19T12:42:07.164Z,15.85
2022-12-19T12:44:58.103Z,17.08
2022-12-19T12:47:49.146Z,15.63
2022-12-19T12:50:42.260Z,15.65
2022-12-19T12:53:36.135Z,16.02
2022-12-19T12:56:24.469Z,15.52
2022-12-19T12:59:24.613Z,16.35
2022-12-19T13:02:19.443Z,16.90
2022-12-19T13:05:26.450Z,16.60
2022-12-19T13:08:48.192Z,16.15
2022-12-19T13:11:57.170Z,16.17
2022-12-19T13:14:48.837Z,15.70
2022-12-19T13:18:14.602Z,17.38
2022-12-19T13:21:06.604Z,16.38
2022-12-19T13:24:17.392Z,16.48
2022-12-19T13:27:31.552Z,16.10
2022-12-19T13:30:21.447Z,16.80
2022-12-19T13:33:11.249Z,16.70
2022-12-19T13:39:50.137Z,16.60
2022-12-19T13:40:00.345Z,15.38
2022-12-19T13:43:09.729Z,15.45
2022-12-19T13:46:01.433Z,16.15
2022-12-19T13:48:51.752Z,16.27
2022-12-19T13:51:50.815Z,17.27
2022-12-19T13:54:48.699Z,16.50
2022-12-19T13:57:39.816Z,15.32
2022-12-19T14:00:35.185Z,16.33
2022-12-19T14:03:34.808Z,15.85
2022-12-19T14:06:25.887Z,15.48
2022-12-19T14:11:27.213Z,16.52
2022-12-19T14:13:54.088Z,16.90
2022-12-19T14:16:07.152Z,16.17
2022-12-19T14:18:56.942Z,16.88
2022-12-19T14:22:09.747Z,16.42
2022-12-19T14:25:45.123Z,15.65
2022-12-19T14:28:18.039Z,16.05
2022-12-19T14:31:21.571Z,16.00
2022-12-19T14:34:46.666Z,15.80
2022-12-19T14:37:31.573Z,16.20
2022-12-19T14:41:00.163Z,17.20
2022-12-19T14:51:51.315Z,15.50
2022-12-19T14:54:02.259Z,15.25
2022-12-19T14:54:12.268Z,16.70
2022-12-19T14:54:38.004Z,17.20
2022-12-19T14:57:04.488Z,16.05
2022-12-19T14:59:54.381Z,16.38
2022-12-19T15:02:42.766Z,16.67
2022-12-19T15:05:31.779Z,16.60
2022-12-19T15:11:00.746Z,16.50
2022-12-19T15:14:04.199Z,16.63
2022-12-19T15:15:21.793Z,16.90
2022-12-19T15:18:23.182Z,15.65
2022-12-19T15:24:00.808Z,15.70
2022-12-19T15:26:51.752Z,15.90
2022-12-19T15:29:40.076Z,16.33
2022-12-19T15:32:29.723Z,17.55
2022-12-19T15:35:19.790Z,15.80
2022-12-19T15:38:08.485Z,17.15
2022-12-19T15:40:56.725Z,17.65
2022-12-19T15:46:55.306Z,17.45
2022-12-19T15:49:45.023Z,12.57
2022-12-19T15:52:33.314Z,16.75
2022-12-19T15:55:26.147Z,16.95
2022-12-19T15:58:14.806Z,17.35
2022-12-19T16:01:04.878Z,17.23
2022-12-19T16:03:53.668Z,16.13
2022-12-19T16:06:43.529Z,16.80
2022-12-19T16:09:33.108Z,16.88
2022-12-19T16:12:25.166Z,18.20
2022-12-19T16:15:22.707Z,16.95
2022-12-19T16:18:13.787Z,17.02
2022-12-19T16:23:51.690Z,16.67
2022-12-19T16:26:41.245Z,17.77
2022-12-19T16:29:32.522Z,17.77
2022-12-19T16:35:17.547Z,17.03
2022-12-19T16:38:12.477Z,17.00
2022-12-19T16:41:02.472Z,16.88
2022-12-19T16:43:51.653Z,17.00
2022-12-19T16:46:41.356Z,17.88
2022-12-19T16:49:33.066Z,18.13
2022-12-19T16:52:21.373Z,17.98
2022-12-19T16:55:10.158Z,17.85
2022-12-19T16:57:59.793Z,17.23
2022-12-19T17:00:48.446Z,16.38
2022-12-19T17:03:41.434Z,16.70
2022-12-19T17:06:29.859Z,18.45
2022-12-19T17:09:20.560Z,17.63
2022-12-19T17:12:17.183Z,18.70
2022-12-19T17:15:13.991Z,17.30
2022-12-19T17:18:04.950Z,18.45
2022-12-19T17:20:53.174Z,16.20
2022-12-19T17:23:42.371Z,16.60
2022-12-19T17:26:30.785Z,16.38
2022-12-19T17:29:19.036Z,15.10
2022-12-19T17:32:10.043Z,15.95
2022-12-19T17:34:58.380Z,16.95
2022-12-19T17:37:52.139Z,14.60
2022-12-19T17:40:40.984Z,16.10
2022-12-19T17:43:29.240Z,15.77
2022-12-19T17:46:19.568Z,15.73
2022-12-19T17:49:17.882Z,15.30
2022-12-19T17:52:10.620Z,14.60
2022-12-19T17:54:58.878Z,14.90
2022-12-19T17:57:47.509Z,15.15
2022-12-19T18:00:35.786Z,13.95
2022-12-19T18:03:25.850Z,15.27
2022-12-19T18:06:16.468Z,14.20
2022-12-19T18:09:05.030Z,15.82
2022-12-19T18:11:53.682Z,13.75
2022-12-19T18:14:41.940Z,15.45
2022-12-19T18:17:30.237Z,15.30
2022-12-19T18:20:31.269Z,16.63
2022-12-19T18:23:23.872Z,15.52
2022-12-19T18:26:13.213Z,15.07
2022-12-19T18:29:01.472Z,14.32
2022-12-19T18:31:51.192Z,14.85
2022-12-19T18:34:40.646Z,15.13
2022-12-19T18:37:28.917Z,15.73
2022-12-19T18:40:26.000Z,14.57
2022-12-19T18:43:18.599Z,14.13
2022-12-19T18:46:07.204Z,15.75
2022-12-19T18:48:55.662Z,15.63
2022-12-19T18:51:44.614Z,15.82
2022-12-19T18:54:32.902Z,15.32
2022-12-19T18:57:22.564Z,16.30
2022-12-19T19:00:12.095Z,17.27
2022-12-19T19:03:03.003Z,15.68
2022-12-19T19:05:51.531Z,15.30
2022-12-19T19:08:39.792Z,15.55
2022-12-19T19:11:31.476Z,15.75
2022-12-19T19:14:21.046Z,14.95
2022-12-19T19:17:25.121Z,17.27
2022-12-19T19:20:14.225Z,16.10
2022-12-19T19:23:02.718Z,17.55
2022-12-19T19:25:51.103Z,16.65
2022-12-19T19:28:39.423Z,16.08
2022-12-19T19:31:32.828Z,16.05
2022-12-19T19:34:25.006Z,15.88
2022-12-19T19:37:16.243Z,15.63
2022-12-19T19:40:04.888Z,15.30
2022-12-19T19:42:53.144Z,16.17
2022-12-19T19:45:43.690Z,15.55
2022-12-19T19:48:34.150Z,14.68
2022-12-19T19:51:22.704Z,16.77
2022-12-19T19:54:12.417Z,16.02
2022-12-19T19:57:00.664Z,15.35
2022-12-19T19:59:48.975Z,15.25
2022-12-19T20:02:38.191Z,16.75
2022-12-19T20:05:28.161Z,15.07
2022-12-19T20:08:17.981Z,15.82
2022-12-19T20:11:06.628Z,15.45
2022-12-19T20:13:54.930Z,14.65
2022-12-19T20:16:44.400Z,13.60
2022-12-19T20:19:32.677Z,13.63
2022-12-19T20:22:22.308Z,12.98
2022-12-19T20:25:10.906Z,12.80
2022-12-19T20:27:59.201Z,13.05
2022-12-19T20:30:47.543Z,12.00
2022-12-19T20:33:35.858Z,11.15
2022-12-19T20:36:25.099Z,12.35
2022-12-19T20:39:15.443Z,11.48
2022-12-19T20:42:03.744Z,10.65
2022-12-19T20:44:52.394Z,10.73
2022-12-19T20:47:40.669Z,11.02
2022-12-19T20:50:28.887Z,11.05
2022-12-19T20:53:17.148Z,11.80
2022-12-19T20:56:09.166Z,11.23
2022-12-19T20:58:57.517Z,9.90
2022-12-19T21:01:45.859Z,10.70
2022-12-19T21:04:34.444Z,9.90
2022-12-19T21:07:22.894Z,9.82
2022-12-19T21:10:11.611Z,9.35
2022-12-19T21:13:01.245Z,10.13
2022-12-19T21:15:53.008Z,9.40
2022-12-19T21:18:59.388Z,10.27
2022-12-19T21:21:47.677Z,9.82
2022-12-19T21:24:36.022Z,9.93
2022-12-19T21:27:24.296Z,9.23
2022-12-19T21:30:14.632Z,9.30
2022-12-19T21:33:04.092Z,10.50
2022-12-19T21:35:52.525Z,9.93
2022-12-19T21:38:41.477Z,10.50
2022-12-19T21:41:36.754Z,10.45
2022-12-19T21:44:26.364Z,10.90
2022-12-19T21:47:17.083Z,11.10
2022-12-19T21:50:05.938Z,10.25
2022-12-19T21:52:56.036Z,10.48
2022-12-19T21:55:44.310Z,10.45
2022-12-19T21:58:35.680Z,9.98
2022-12-19T22:01:26.231Z,10.30
2022-12-19T22:04:21.106Z,9.60
2022-12-19T22:07:09.479Z,10.23
2022-12-19T22:09:57.855Z,10.02
2022-12-19T22:12:46.080Z,8.80
2022-12-19T22:15:36.904Z,8.93
2022-12-19T22:18:25.452Z,9.80
2022-12-19T22:21:16.532Z,9.63
2022-12-19T22:24:05.569Z,9.93
2022-12-19T22:26:53.838Z,9.75
2022-12-19T22:29:42.111Z,9.45
2022-12-19T22:32:31.225Z,9.80
2022-12-19T22:35:20.161Z,9.82
2022-12-19T22:38:09.861Z,9.43
2022-12-19T22:40:58.095Z,10.70
2022-12-19T22:43:47.165Z,10.30
2022-12-19T22:46:37.100Z,10.30
2022-12-19T22:49:25.660Z,10.68
2022-12-19T22:52:14.133Z,10.15
2022-12-19T22:55:03.683Z,9.88
2022-12-19T22:57:51.988Z,10.80
2022-12-19T23:00:40.257Z,11.07
2022-12-19T23:03:29.419Z,10.25
2022-12-19T23:06:22.854Z,10.00
2022-12-19T23:09:13.877Z,10.23
2022-12-19T23:12:03.754Z,9.82
2022-12-19T23:14:52.085Z,9.77
2022-12-19T23:17:41.788Z,10.25
2022-12-19T23:20:30.163Z,9.73
2022-12-19T23:23:21.131Z,10.15
2022-12-19T23:26:15.609Z,9.23
2022-12-19T23:29:08.719Z,9.02
2022-12-19T23:31:57.055Z,9.00
2022-12-19T23:34:45.808Z,8.88
2022-12-19T23:37:34.013Z,9.02
2022-12-19T23:40:22.259Z,8.07
2022-12-19T23:43:10.746Z,8.13
2022-12-19T23:46:01.333Z,8.10
2022-12-19T23:48:49.621Z,7.78
2022-12-19T23:51:37.957Z,7.97
2022-12-19T23:54:26.208Z,7.40
2022-12-19T23:57:14.453Z,8.23
